Bellvue, Texas
Current Conditions -  °F | °C
As of 7:15 AM on Thursday 18 Dec 2014 (Local Time) from K11R Reporting Station
Haze Haze  
Wind Chill: 53°   Ceiling: 300
Heat Index: 53°   Visibility: 2.5mi
Dew Point: 52°   Wind: 7mph
Humidity: 96%   Direction: 350°N
Pressure: 30.11"   Gusts: NA
Location:  29.9944°N, 96.2595°W
Report Text: K11R 181315Z AUTO 35006KT 2 1/2SM BR OVC003 12/11 A3011 RMK AO2 LTG DSNT SE T01160110
Loading
Personal Weather Stations






























Interactive Weather Map New forecast layout! Learn more

10-Day Weather Forecast

Advertisements
Track Severe Weather on mobile